Time;durP1;ratioP1;P1;durP2;ratioP2;P2;SDS_P1;SDS_P2;PMS_P1;PMS_P2;Temp;Humidity;BMP_temperature;BMP_pressure;BME280_temperature;BME280_humidity;BME280_pressure;Samples;Min_cycle;Max_cycle;Signal;HPM_P1;HPM_P2
2022/01/02 00:00:37;;;;;;;8.13;2.65;;;;;;;-1.04;54.01;98219.25;5039107;28;20429;-72
2022/01/02 00:03:24;;;;;;;7.72;2.90;;;;;;;-1.01;54.39;98232.19;5034589;28;20056;-72
2022/01/02 00:06:09;;;;;;;8.35;3.00;;;;;;;-1.04;54.53;98227.28;5033246;28;20053;-69
2022/01/02 00:09:03;;;;;;;6.25;2.38;;;;;;;-1.01;54.75;98234.06;5045906;28;20408;-70
2022/01/02 00:11:53;;;;;;;8.10;2.78;;;;;;;-1.17;55.27;98222.19;5035760;28;20059;-71
2022/01/02 00:14:44;;;;;;;7.43;2.80;;;;;;;-1.04;55.02;98240.72;5032190;28;20178;-72
2022/01/02 00:17:32;;;;;;;8.55;2.50;;;;;;;-1.02;55.34;98235.09;5050577;28;20280;-69
2022/01/02 00:20:19;;;;;;;7.85;3.03;;;;;;;-0.99;55.26;98248.06;5063397;28;20107;-71
2022/01/02 00:23:06;;;;;;;6.78;2.53;;;;;;;-1.11;55.27;98225.78;5052689;28;20456;-69
2022/01/02 00:25:54;;;;;;;6.97;2.65;;;;;;;-1.03;55.08;98230.78;5043234;28;20055;-69
2022/01/02 00:28:45;;;;;;;7.60;2.53;;;;;;;-1.07;55.39;98257.28;5027775;28;20082;-69
2022/01/02 00:31:32;;;;;;;7.47;2.67;;;;;;;-1.04;55.38;98250.59;5034904;28;20052;-71
2022/01/02 00:34:18;;;;;;;6.88;2.70;;;;;;;-1.08;55.29;98247.59;5034148;28;20441;-71
2022/01/02 00:37:04;;;;;;;5.97;2.38;;;;;;;-1.05;55.21;98255.19;5050665;28;20076;-71
2022/01/02 00:39:48;;;;;;;6.70;2.30;;;;;;;-1.10;55.26;98252.38;5037374;28;20132;-71
2022/01/02 00:42:37;;;;;;;7.30;2.90;;;;;;;-1.10;55.11;98265.78;5071704;28;20099;-72
2022/01/02 00:45:25;;;;;;;6.47;2.60;;;;;;;-1.16;55.42;98256.00;5034150;28;20060;-71
2022/01/02 00:48:14;;;;;;;8.40;2.85;;;;;;;-1.20;55.50;98271.75;5046903;28;20083;-71
2022/01/02 00:51:02;;;;;;;7.25;2.67;;;;;;;-1.03;55.19;98246.88;5050368;28;20048;-71
2022/01/02 00:53:49;;;;;;;6.83;2.60;;;;;;;-1.05;54.92;98257.84;5040981;28;20533;-70
2022/01/02 00:56:42;;;;;;;6.60;2.50;;;;;;;-1.00;54.19;98268.69;5044896;28;20056;-70
2022/01/02 00:59:43;;;;;;;6.82;1.95;;;;;;;-1.01;53.86;98280.47;5029743;28;20049;-70
2022/01/02 01:02:33;;;;;;;5.03;2.03;;;;;;;-1.14;53.57;98280.72;5039107;28;20421;-70
2022/01/02 01:05:21;;;;;;;6.18;2.10;;;;;;;-1.20;53.62;98269.06;5063493;28;20471;-71
2022/01/02 01:08:08;;;;;;;5.28;1.83;;;;;;;-1.07;53.21;98294.00;5036637;28;20060;-71
2022/01/02 01:10:52;;;;;;;5.03;1.85;;;;;;;-1.09;52.84;98286.22;5034660;28;20516;-71
2022/01/02 01:13:37;;;;;;;5.93;1.88;;;;;;;-1.21;53.06;98288.88;5048529;28;20079;-70
2022/01/02 01:16:23;;;;;;;4.35;1.70;;;;;;;-1.32;52.95;98279.81;5029592;28;20421;-70
2022/01/02 01:19:09;;;;;;;4.43;1.60;;;;;;;-1.38;52.94;98275.41;5046885;28;20060;-66
2022/01/02 01:21:54;;;;;;;4.13;1.80;;;;;;;-1.28;52.81;98288.22;5047915;28;20094;-69
2022/01/02 01:24:38;;;;;;;5.18;1.90;;;;;;;-1.33;53.03;98275.50;5043106;28;20487;-69
2022/01/02 01:27:24;;;;;;;5.88;2.20;;;;;;;-1.35;53.48;98291.00;5035042;28;20056;-69
2022/01/02 01:30:12;;;;;;;5.63;2.27;;;;;;;-1.41;53.98;98294.59;5034324;28;20040;-69
2022/01/02 01:32:58;;;;;;;;;;;;;;;-1.41;54.58;98296.50;5035976;28;20137;-70
2022/01/02 01:35:43;;;;;;;8.32;2.15;;;;;;;-1.45;55.16;98299.66;5045442;28;19960;-70
2022/01/02 01:38:27;;;;;;;6.13;2.00;;;;;;;-1.45;55.63;98304.19;5034801;28;20056;-70
2022/01/02 01:41:29;;;;;;;5.25;2.05;;;;;;;-1.46;56.17;98297.19;5051588;28;20554;-70
2022/01/02 01:47:01;;;;;;;6.43;2.10;;;;;;;-1.46;54.77;98265.00;5049545;28;20160;-71
2022/01/02 01:49:47;;;;;;;6.28;2.10;;;;;;;-1.46;54.42;98295.34;5046187;28;20175;-68
2022/01/02 01:52:34;;;;;;;7.20;2.08;;;;;;;-1.58;54.06;98303.34;5032226;28;20525;-68
2022/01/02 01:55:19;;;;;;;5.03;1.80;;;;;;;-1.51;53.79;98302.44;5049230;28;20105;-70
2022/01/02 01:58:07;;;;;;;6.28;2.35;;;;;;;-1.51;53.81;98297.06;5047519;28;20060;-70
2022/01/02 02:00:55;;;;;;;7.10;2.03;;;;;;;-1.58;53.99;98305.22;5043865;28;20060;-70
2022/01/02 02:03:52;;;;;;;5.18;2.00;;;;;;;-1.54;53.93;98302.91;5049737;28;20103;-71
2022/01/02 02:06:40;;;;;;;5.05;2.08;;;;;;;-1.68;53.88;98305.81;5046258;28;20152;-69
2022/01/02 02:09:33;;;;;;;4.07;1.83;;;;;;;-1.66;53.94;98322.47;5020018;28;20048;-71
2022/01/02 02:12:19;;;;;;;7.45;1.80;;;;;;;-1.71;53.78;98312.44;5026792;28;20045;-71
2022/01/02 02:15:06;;;;;;;5.00;1.80;;;;;;;-1.64;53.55;98308.81;5032981;28;20075;-70
2022/01/02 02:17:52;;;;;;;6.97;2.20;;;;;;;-1.67;53.24;98302.06;5033469;28;20087;-70
2022/01/02 02:20:39;;;;;;;4.63;1.70;;;;;;;-1.75;53.35;98302.41;5034008;28;20107;-70
2022/01/02 02:23:33;;;;;;;4.93;1.90;;;;;;;-1.74;53.20;98309.38;5043054;28;20180;-69
2022/01/02 02:26:18;;;;;;;4.63;1.80;;;;;;;-1.60;53.12;98316.16;5050150;28;20115;-69
2022/01/02 02:29:05;;;;;;;3.33;1.70;;;;;;;-1.66;52.76;98324.31;5072710;28;20105;-70
2022/01/02 02:31:54;;;;;;;6.53;1.77;;;;;;;-1.65;52.89;98318.75;5048358;28;20048;-70
2022/01/02 02:34:40;;;;;;;2.97;1.50;;;;;;;-1.69;52.96;98322.94;5050892;28;20421;-70
2022/01/02 02:37:29;;;;;;;2.72;1.50;;;;;;;-1.61;52.60;98330.63;5038993;28;20532;-70
2022/01/02 02:40:17;;;;;;;4.28;1.70;;;;;;;-1.59;52.94;98339.25;5046153;28;20426;-70
2022/01/02 02:43:09;;;;;;;5.20;1.73;;;;;;;-1.55;52.76;98328.88;5034785;28;20414;-69
2022/01/02 02:49:05;;;;;;;4.57;1.73;;;;;;;-1.67;52.39;98334.25;5034003;28;20060;-70
2022/01/02 02:52:03;;;;;;;5.60;1.70;;;;;;;-1.69;52.62;98339.03;5037093;28;20052;-70
2022/01/02 02:54:54;;;;;;;3.50;1.58;;;;;;;-1.67;53.06;98353.00;5035898;28;20056;-70
2022/01/02 02:57:41;;;;;;;4.07;1.60;;;;;;;-1.76;53.09;98365.09;5032696;28;20050;-69
2022/01/02 03:00:26;;;;;;;3.63;1.73;;;;;;;-1.78;53.18;98372.53;5049739;28;20144;-70
2022/01/02 03:03:11;;;;;;;7.43;2.17;;;;;;;-1.69;53.22;98378.41;5047008;28;20060;-68
2022/01/02 03:06:00;;;;;;;5.85;1.80;;;;;;;-1.71;53.08;98374.06;5034295;28;20048;-69
2022/01/02 03:08:47;;;;;;;4.30;1.73;;;;;;;-1.72;53.05;98374.28;5051378;28;20083;-68
2022/01/02 03:11:34;;;;;;;4.57;2.00;;;;;;;-1.84;53.57;98378.84;5047491;28;20048;-69
2022/01/02 03:14:22;;;;;;;6.18;2.13;;;;;;;-1.91;53.83;98379.72;5052937;28;20051;-69
2022/01/02 03:17:07;;;;;;;7.10;2.20;;;;;;;-1.80;53.56;98383.47;5031156;28;20183;-69
2022/01/02 03:19:53;;;;;;;5.67;2.00;;;;;;;-1.82;53.39;98390.94;5047338;28;20523;-71
2022/01/02 03:22:39;;;;;;;6.55;2.03;;;;;;;-1.82;53.32;98393.63;5037923;28;20079;-70
2022/01/02 03:25:24;;;;;;;7.93;2.25;;;;;;;-1.79;54.11;98384.31;5051081;28;20570;-71
2022/01/02 03:28:13;;;;;;;5.20;2.00;;;;;;;-1.85;54.15;98404.78;5035260;28;20263;-70
2022/01/02 03:30:58;;;;;;;5.03;2.00;;;;;;;-1.81;54.07;98391.78;5051074;28;20059;-72
2022/01/02 03:33:45;;;;;;;4.72;1.80;;;;;;;-1.93;53.82;98405.94;5050236;28;20052;-72
2022/01/02 03:36:30;;;;;;;4.67;1.83;;;;;;;-2.02;54.29;98418.84;5046093;28;20525;-72
2022/01/02 03:39:14;;;;;;;6.77;2.00;;;;;;;-2.06;53.99;98398.06;5051603;28;20531;-70
2022/01/02 03:42:00;;;;;;;4.73;1.90;;;;;;;-1.90;53.74;98413.50;5046340;28;20091;-70
2022/01/02 03:44:45;;;;;;;4.80;1.90;;;;;;;-1.71;53.84;98433.06;5050632;28;20128;-70
2022/01/02 03:47:31;;;;;;;8.27;2.27;;;;;;;-1.79;53.45;98432.56;5050601;28;20567;-71
2022/01/02 03:50:16;;;;;;;3.97;1.60;;;;;;;-1.81;53.27;98434.66;5043737;28;20434;-70
2022/01/02 03:53:03;;;;;;;7.53;1.70;;;;;;;-1.76;52.61;98435.59;5048280;28;20405;-70
2022/01/02 03:55:49;;;;;;;9.23;2.30;;;;;;;-1.87;53.11;98418.44;5036647;28;20056;-70
2022/01/02 03:58:33;;;;;;;5.23;1.70;;;;;;;-1.94;52.70;98432.97;5042466;28;20472;-69
2022/01/02 04:01:20;;;;;;;6.20;1.67;;;;;;;-1.84;52.52;98427.06;5051413;28;20090;-70
2022/01/02 04:04:05;;;;;;;5.63;1.77;;;;;;;-1.91;52.16;98429.84;5046946;28;20049;-69
2022/01/02 04:06:50;;;;;;;5.10;1.60;;;;;;;-1.96;52.49;98437.72;5070100;28;20063;-70
2022/01/02 04:09:35;;;;;;;7.90;2.00;;;;;;;-2.01;52.39;98447.25;5051818;28;20091;-69
2022/01/02 04:12:21;;;;;;;7.67;2.17;;;;;;;-2.02;52.60;98437.59;5047719;28;20466;-68
2022/01/02 04:15:07;;;;;;;5.70;1.70;;;;;;;-2.00;52.90;98443.53;5038046;28;20132;-70
2022/01/02 04:17:54;;;;;;;;;;;;;;;-1.91;52.67;98460.09;5042915;28;20064;-69
2022/01/02 04:20:39;;;;;;;5.40;1.77;;;;;;;-1.89;52.72;98458.03;5041279;28;19971;-69
2022/01/02 04:23:24;;;;;;;6.30;1.80;;;;;;;-1.98;52.78;98459.38;5039984;28;20060;-70
2022/01/02 04:26:09;;;;;;;8.03;2.03;;;;;;;-1.96;52.74;98441.22;5036949;28;20436;-69
2022/01/02 04:28:54;;;;;;;6.03;1.83;;;;;;;-2.02;52.62;98456.34;5031367;28;20099;-70
2022/01/02 04:31:40;;;;;;;5.80;2.50;;;;;;;-1.97;52.31;98470.91;5020927;28;20056;-71
2022/01/02 04:34:26;;;;;;;4.93;1.93;;;;;;;-2.05;52.50;98467.50;5033253;28;20057;-70
2022/01/02 04:37:13;;;;;;;5.40;1.83;;;;;;;-2.02;52.56;98476.97;5047425;28;20056;-70
2022/01/02 04:39:58;;;;;;;4.23;1.70;;;;;;;-1.92;52.16;98458.47;5034093;28;20081;-70
2022/01/02 04:42:43;;;;;;;6.50;1.98;;;;;;;-2.06;51.82;98457.00;5040891;28;20490;-70
2022/01/02 04:45:28;;;;;;;5.63;1.80;;;;;;;-2.11;51.87;98467.59;5043159;28;20576;-69
2022/01/02 04:48:13;;;;;;;6.70;1.77;;;;;;;-2.22;51.94;98491.38;5033059;28;20568;-70
2022/01/02 04:51:00;;;;;;;5.33;2.07;;;;;;;-2.25;51.94;98477.66;5039498;28;20084;-69
2022/01/02 04:53:48;;;;;;;9.25;2.00;;;;;;;-2.23;52.43;98471.00;5034929;28;20058;-69
2022/01/02 04:56:33;;;;;;;;;;;;;;;-2.21;52.92;98501.06;5017595;28;20110;-70
2022/01/02 04:59:18;;;;;;;5.00;1.70;;;;;;;-2.14;53.10;98484.91;5035408;28;19932;-70
2022/01/02 05:02:05;;;;;;;7.57;1.87;;;;;;;-2.23;53.81;98471.00;5041333;28;20056;-70
2022/01/02 05:04:50;;;;;;;3.27;1.43;;;;;;;-2.18;53.92;98483.72;5064980;28;20424;-70
2022/01/02 05:07:36;;;;;;;5.13;1.60;;;;;;;-2.34;54.34;98479.78;5068626;28;20084;-69
2022/01/02 05:10:22;;;;;;;5.33;1.87;;;;;;;-2.36;54.63;98490.72;5049674;28;20068;-70
2022/01/02 05:13:07;;;;;;;5.90;2.00;;;;;;;-2.44;54.98;98480.28;5047767;28;20071;-70
2022/01/02 05:15:52;;;;;;;5.83;2.20;;;;;;;-2.40;54.80;98512.81;5035412;28;20083;-70
2022/01/02 05:18:38;;;;;;;7.77;2.00;;;;;;;-2.43;54.81;98498.00;5043539;28;20088;-69
2022/01/02 05:21:23;;;;;;;7.87;1.83;;;;;;;-2.39;54.33;98509.91;5031972;28;20055;-70
2022/01/02 05:24:08;;;;;;;6.73;1.80;;;;;;;-2.37;54.20;98515.88;5045015;28;20150;-69
2022/01/02 05:26:55;;;;;;;5.20;1.83;;;;;;;-2.42;53.95;98502.31;5047516;28;20122;-71
2022/01/02 05:29:40;;;;;;;5.50;1.60;;;;;;;-2.47;54.05;98486.94;5046502;28;20135;-67
2022/01/02 05:32:25;;;;;;;4.37;1.50;;;;;;;-2.54;54.24;98506.78;5033420;28;20088;-67
2022/01/02 05:35:10;;;;;;;4.20;1.55;;;;;;;-2.56;53.99;98506.97;5044894;28;23233;-67
2022/01/02 05:37:55;;;;;;;5.30;1.60;;;;;;;-2.63;53.56;98508.91;5048108;28;20052;-65
2022/01/02 05:40:41;;;;;;;3.63;1.30;;;;;;;-2.54;53.31;98506.78;5043892;28;20056;-66
2022/01/02 05:43:27;;;;;;;6.47;1.67;;;;;;;-2.65;52.75;98519.84;5049917;28;20080;-66
2022/01/02 05:46:12;;;;;;;5.90;1.40;;;;;;;-2.68;52.72;98524.78;5044385;28;20302;-66
2022/01/02 05:48:57;;;;;;;4.97;1.20;;;;;;;-2.63;52.31;98535.69;5034780;28;20094;-66
2022/01/02 05:51:42;;;;;;;4.33;1.50;;;;;;;-2.64;52.38;98544.75;5051620;28;20091;-67
2022/01/02 05:54:27;;;;;;;7.20;2.03;;;;;;;-2.55;52.13;98550.66;5044194;28;20587;-68
2022/01/02 05:57:13;;;;;;;5.37;1.50;;;;;;;-2.61;51.86;98542.44;5059639;28;20044;-66
2022/01/02 05:59:58;;;;;;;5.72;1.77;;;;;;;-2.68;52.31;98548.88;5042014;28;20052;-66
2022/01/02 06:02:42;;;;;;;6.83;1.70;;;;;;;-2.69;52.77;98569.50;5049792;28;20083;-65
2022/01/02 06:05:30;;;;;;;3.78;1.50;;;;;;;-2.68;52.79;98576.47;5042706;28;20056;-66
2022/01/02 06:08:15;;;;;;;3.93;1.60;;;;;;;-2.69;53.10;98574.00;5053532;28;20040;-67
2022/01/02 06:11:02;;;;;;;7.77;2.20;;;;;;;-2.68;52.96;98581.84;5036113;28;20083;-67
2022/01/02 06:13:48;;;;;;;;;;;;;;;-2.61;53.42;98579.09;5050890;28;20048;-68
2022/01/02 06:16:34;;;;;;;8.50;2.00;;;;;;;-2.68;53.36;98581.84;5034229;28;20301;-67
2022/01/02 06:19:19;;;;;;;29.80;14.87;;;;;;;-2.73;53.79;98569.09;5034370;28;20109;-67
2022/01/02 06:22:04;;;;;;;19.27;6.20;;;;;;;-2.72;53.96;98588.66;5043971;28;20486;-67
2022/01/02 06:24:49;;;;;;;9.17;3.40;;;;;;;-2.74;54.13;98583.53;5041499;28;20053;-67
2022/01/02 06:27:34;;;;;;;10.63;2.60;;;;;;;-2.73;54.10;98585.16;5034123;28;20048;-67
2022/01/02 06:30:20;;;;;;;7.63;2.20;;;;;;;-2.68;54.23;98587.19;5036372;28;20520;-68
2022/01/02 06:33:05;;;;;;;9.87;2.67;;;;;;;-2.67;54.26;98586.16;5034251;28;20041;-67
2022/01/02 06:35:50;;;;;;;4.77;1.80;;;;;;;-2.66;53.93;98578.91;5050450;28;20098;-67
2022/01/02 06:38:35;;;;;;;4.40;1.70;;;;;;;-2.72;53.74;98575.28;5039761;28;20092;-66
2022/01/02 06:41:20;;;;;;;6.47;1.93;;;;;;;-2.71;53.63;98582.28;5037361;28;20453;-67
2022/01/02 06:44:06;;;;;;;6.23;1.70;;;;;;;-2.60;53.23;98588.78;5044579;28;20107;-67
2022/01/02 06:46:53;;;;;;;6.20;2.03;;;;;;;-2.65;52.81;98588.63;5046003;28;20422;-67
2022/01/02 06:49:38;;;;;;;5.65;1.88;;;;;;;-2.67;52.76;98583.47;5049157;28;20055;-67
2022/01/02 06:52:23;;;;;;;6.97;1.87;;;;;;;-2.69;52.63;98582.88;5054579;28;20075;-68
2022/01/02 06:55:09;;;;;;;7.03;1.90;;;;;;;-2.71;53.06;98590.31;5051700;28;20091;-66
2022/01/02 06:57:54;;;;;;;8.00;1.87;;;;;;;-2.76;53.16;98603.50;5036004;28;20149;-67
2022/01/02 07:00:39;;;;;;;5.50;1.87;;;;;;;-2.77;53.50;98600.00;5059389;28;20060;-67
2022/01/02 07:03:27;;;;;;;5.63;2.10;;;;;;;-2.81;53.47;98597.97;5051033;28;20413;-67
2022/01/02 07:06:12;;;;;;;7.07;2.22;;;;;;;-2.88;53.75;98609.56;5045376;28;20060;-67
2022/01/02 07:08:57;;;;;;;7.20;2.03;;;;;;;-2.83;53.65;98606.22;5045739;28;20084;-67
2022/01/02 07:11:42;;;;;;;6.70;1.87;;;;;;;-2.77;53.71;98633.97;5033806;28;20061;-65
2022/01/02 07:14:27;;;;;;;7.20;2.10;;;;;;;-2.89;53.96;98636.53;5051833;28;20195;-68
2022/01/02 07:17:13;;;;;;;8.13;1.90;;;;;;;-2.88;54.15;98622.94;5036019;28;20048;-66
2022/01/02 07:19:59;;;;;;;7.40;2.30;;;;;;;-2.87;54.52;98631.78;5040827;28;20047;-68
2022/01/02 07:22:44;;;;;;;10.17;2.20;;;;;;;-3.03;54.92;98606.38;5051391;28;20515;-67
2022/01/02 07:25:28;;;;;;;6.50;2.10;;;;;;;-2.85;54.73;98625.19;5055955;28;20098;-67
2022/01/02 07:28:13;;;;;;;7.40;2.30;;;;;;;-2.92;54.42;98619.03;5046320;28;20103;-67
2022/01/02 07:30:58;;;;;;;6.07;1.90;;;;;;;-2.82;54.28;98637.28;5049551;28;20465;-67
2022/01/02 07:33:43;;;;;;;8.40;2.13;;;;;;;-2.83;53.88;98640.19;5039287;28;20087;-67
2022/01/02 07:36:32;;;;;;;5.03;1.93;;;;;;;-2.86;53.73;98644.13;5051934;28;20413;-66
2022/01/02 07:39:17;;;;;;;6.67;1.83;;;;;;;-2.96;53.44;98635.75;5053717;28;20056;-66
2022/01/02 07:42:05;;;;;;;7.70;2.10;;;;;;;-3.01;53.29;98634.53;5038869;28;20099;-68
2022/01/02 07:44:58;;;;;;;5.70;1.87;;;;;;;-2.93;53.00;98636.13;5047482;28;20472;-68
2022/01/02 07:47:43;;;;;;;9.83;2.43;;;;;;;-3.00;53.11;98644.19;5019627;28;20421;-67
2022/01/02 07:50:28;;;;;;;7.10;1.60;;;;;;;-3.00;53.28;98632.69;5049407;28;20516;-67
2022/01/02 07:53:17;;;;;;;6.03;1.80;;;;;;;-2.92;53.20;98653.81;5042108;28;20106;-67
2022/01/02 07:56:02;;;;;;;6.10;2.03;;;;;;;-2.88;52.99;98663.06;5033259;28;20072;-67
2022/01/02 07:58:47;;;;;;;7.47;1.87;;;;;;;-2.97;52.71;98634.91;5032385;28;20430;-67
2022/01/02 08:01:31;;;;;;;6.07;2.00;;;;;;;-2.80;52.49;98639.75;5034080;28;20060;-67
2022/01/02 08:04:16;;;;;;;6.93;2.00;;;;;;;-2.68;52.24;98661.28;5032552;28;20092;-67
2022/01/02 08:07:02;;;;;;;5.40;1.90;;;;;;;-2.74;52.18;98662.97;5036439;28;20087;-67
2022/01/02 08:09:48;;;;;;;8.13;1.80;;;;;;;-2.80;52.22;98650.47;5042248;28;20186;-68
2022/01/02 08:12:33;;;;;;;4.43;1.70;;;;;;;-2.84;52.39;98658.09;5049589;28;20047;-67
2022/01/02 08:15:18;;;;;;;5.77;1.70;;;;;;;-2.87;52.23;98654.00;5046668;28;20135;-68
2022/01/02 08:18:03;;;;;;;5.13;1.70;;;;;;;-2.88;52.40;98660.41;5031720;28;20053;-68
2022/01/02 08:20:48;;;;;;;7.50;1.90;;;;;;;-2.80;52.53;98650.47;5049033;28;20048;-67
2022/01/02 08:23:34;;;;;;;6.83;1.70;;;;;;;-2.72;52.25;98666.28;5043363;28;20104;-67
2022/01/02 08:26:19;;;;;;;7.00;1.87;;;;;;;-2.77;52.46;98669.59;5040267;28;20059;-67
2022/01/02 08:29:04;;;;;;;6.83;1.93;;;;;;;-2.71;52.43;98652.66;5045853;28;20520;-67
2022/01/02 08:31:49;;;;;;;5.60;2.00;;;;;;;-2.69;52.92;98681.91;5051679;28;20064;-66
2022/01/02 08:34:34;;;;;;;6.07;1.80;;;;;;;-2.80;52.44;98675.38;5049916;28;20096;-66
2022/01/02 08:37:19;;;;;;;3.40;1.47;;;;;;;-2.61;52.69;98640.66;5049989;28;20051;-66
2022/01/02 08:40:06;;;;;;;4.37;1.60;;;;;;;-2.80;52.23;98635.25;5044476;28;20064;-71
2022/01/02 08:42:52;;;;;;;6.37;2.03;;;;;;;-2.71;52.65;98683.97;5036585;28;20074;-70
2022/01/02 08:45:38;;;;;;;6.47;1.80;;;;;;;-2.74;52.46;98698.59;5044087;28;20103;-71
2022/01/02 08:48:23;;;;;;;6.47;1.77;;;;;;;-2.68;52.16;98672.00;5042935;28;20052;-72
2022/01/02 08:51:10;;;;;;;8.00;1.80;;;;;;;-2.53;51.85;98685.88;5033732;28;20079;-70
2022/01/02 08:53:56;;;;;;;7.63;1.83;;;;;;;-2.58;51.37;98691.09;5046430;28;20052;-70
2022/01/02 08:56:41;;;;;;;4.97;1.70;;;;;;;-2.61;51.92;98678.94;5045022;28;20063;-73
2022/01/02 08:59:28;;;;;;;6.60;1.80;;;;;;;-2.53;51.45;98687.75;5046349;28;20063;-74
2022/01/02 09:02:12;;;;;;;6.57;2.03;;;;;;;-2.47;51.59;98685.03;5047109;28;20078;-74
2022/01/02 09:04:57;;;;;;;9.40;2.17;;;;;;;-2.43;51.53;98651.44;5046044;28;20055;-74
2022/01/02 09:07:41;;;;;;;7.00;2.03;;;;;;;-2.36;51.05;98691.56;5048424;28;20076;-73
2022/01/02 09:10:26;;;;;;;4.63;1.77;;;;;;;-2.21;50.83;98677.03;5049976;28;20444;-73
2022/01/02 09:13:11;;;;;;;6.37;2.00;;;;;;;-2.09;50.95;98679.81;5046638;28;20417;-72
2022/01/02 09:15:57;;;;;;;7.40;1.80;;;;;;;-1.89;51.00;98669.72;5047374;28;20535;-73
2022/01/02 09:18:42;;;;;;;8.40;2.00;;;;;;;-1.96;51.10;98668.13;5046186;28;20048;-72
2022/01/02 09:21:27;;;;;;;5.50;2.10;;;;;;;-1.90;50.99;98673.44;5049365;28;20182;-72
2022/01/02 09:24:11;;;;;;;5.80;2.70;;;;;;;-2.00;50.45;98679.31;5041065;28;20049;-72
2022/01/02 09:26:57;;;;;;;6.30;1.88;;;;;;;-2.11;50.88;98666.63;5049313;28;20057;-69
2022/01/02 09:29:42;;;;;;;4.80;1.80;;;;;;;-2.05;50.93;98662.25;5041722;28;20063;-68
2022/01/02 09:32:28;;;;;;;6.28;2.00;;;;;;;-2.02;50.69;98673.34;5045717;28;20405;-69
2022/01/02 09:35:13;;;;;;;5.17;1.93;;;;;;;-2.11;50.45;98653.22;5046832;28;20060;-69
2022/01/02 09:37:59;;;;;;;5.80;2.03;;;;;;;-2.24;50.52;98643.47;5048520;28;20187;-70
2022/01/02 09:40:44;;;;;;;4.63;1.63;;;;;;;-2.25;50.67;98641.00;5042496;28;20472;-74
2022/01/02 09:43:29;;;;;;;4.80;1.60;;;;;;;-2.37;50.30;98639.03;5040644;28;20128;-69
2022/01/02 09:46:19;;;;;;;5.37;1.80;;;;;;;-2.36;50.49;98640.69;5049916;28;20102;-68
2022/01/02 09:49:07;;;;;;;8.73;1.83;;;;;;;-2.27;50.62;98617.13;5060830;28;20134;-69
2022/01/02 09:51:51;;;;;;;8.27;1.98;;;;;;;-2.30;50.44;98649.69;5037928;28;20059;-69
2022/01/02 09:54:36;;;;;;;6.90;1.67;;;;;;;-2.50;50.34;98639.13;5046835;28;20056;-69
2022/01/02 09:57:03;;;;;;;5.63;1.60;;;;;;;-2.52;50.64;98654.59;5056699;28;20413;-69
2022/01/02 09:59:29;;;;;;;6.27;2.03;;;;;;;-2.57;50.68;98645.38;5030079;28;20057;-70
2022/01/02 10:01:55;;;;;;;5.67;1.90;;;;;;;-2.45;50.35;98661.56;5044092;28;20048;-69
2022/01/02 10:04:33;;;;;;;5.17;1.70;;;;;;;-2.59;50.57;98643.94;5048569;28;20056;-70
2022/01/02 10:06:59;;;;;;;4.43;1.70;;;;;;;-2.45;50.31;98658.88;5037342;28;20071;-70
2022/01/02 10:09:34;;;;;;;4.63;1.60;;;;;;;-2.49;50.27;98676.41;5037604;28;20059;-70
2022/01/02 10:12:20;;;;;;;6.53;2.07;;;;;;;-2.47;49.92;98671.66;5041717;28;20485;-72
2022/01/02 10:14:46;;;;;;;7.33;1.90;;;;;;;-2.55;50.12;98677.25;5052293;28;20053;-71
2022/01/02 10:17:12;;;;;;;5.43;1.80;;;;;;;-2.58;49.92;98661.63;5047827;28;20480;-68
2022/01/02 10:19:42;;;;;;;8.07;2.30;;;;;;;-2.62;49.96;98682.66;5041683;28;20052;-70
2022/01/02 10:22:09;;;;;;;4.93;1.73;;;;;;;-2.61;49.89;98664.75;5047662;28;20041;-70
2022/01/02 10:24:37;;;;;;;9.00;2.20;;;;;;;-2.45;49.79;98674.09;5032710;28;20049;-70
2022/01/02 10:27:12;;;;;;;4.17;1.70;;;;;;;-2.48;49.72;98677.22;5040296;28;20315;-70
2022/01/02 10:29:40;;;;;;;6.13;2.00;;;;;;;-2.41;49.80;98680.69;5045589;28;20400;-71
2022/01/02 10:32:23;;;;;;;5.33;2.07;;;;;;;-2.40;49.79;98686.84;5045808;28;20140;-70
2022/01/02 10:34:51;;;;;;;5.57;2.03;;;;;;;-2.35;49.73;98657.53;5039397;28;20524;-69
2022/01/02 10:37:22;;;;;;;;;;;;;;;-2.27;49.98;98694.78;5039517;28;20071;-69
2022/01/02 10:39:48;;;;;;;6.63;2.20;;;;;;;-2.23;49.75;98700.53;5044974;28;19924;-70
2022/01/02 10:42:17;;;;;;;6.23;2.20;;;;;;;-2.38;49.69;98679.41;5049147;28;20080;-70
2022/01/02 10:44:43;;;;;;;6.97;1.90;;;;;;;-2.50;50.11;98692.69;5047864;28;20041;-69
2022/01/02 10:47:15;;;;;;;5.72;2.00;;;;;;;-2.51;50.25;98705.22;5045227;28;20136;-71
2022/01/02 10:49:54;;;;;;;6.90;2.20;;;;;;;-2.52;49.78;98706.28;5048773;28;20131;-71
2022/01/02 10:52:24;;;;;;;8.10;2.00;;;;;;;-2.52;49.66;98708.16;5048399;28;20053;-71
2022/01/02 10:54:51;;;;;;;9.27;2.60;;;;;;;-2.49;49.67;98711.22;5048492;28;20568;-70
2022/01/02 10:57:19;;;;;;;10.93;3.17;;;;;;;-2.45;49.50;98709.75;5041091;28;20048;-70
2022/01/02 10:59:45;;;;;;;9.27;2.67;;;;;;;-2.46;49.40;98705.44;5046590;28;20055;-70
2022/01/02 11:02:13;;;;;;;5.10;1.90;;;;;;;-2.47;49.75;98711.81;5044379;28;20099;-71
2022/01/02 11:04:46;;;;;;;6.85;2.28;;;;;;;-2.50;49.55;98714.91;5036889;28;20060;-71
2022/01/02 11:07:19;;;;;;;6.37;2.53;;;;;;;-2.43;49.37;98720.22;5040027;28;20532;-70
2022/01/02 11:09:46;;;;;;;8.03;2.53;;;;;;;-2.47;49.25;98717.16;5037846;28;20065;-71
2022/01/02 11:12:13;;;;;;;10.13;2.77;;;;;;;-2.53;49.33;98730.59;5042098;28;20049;-70
2022/01/02 11:14:40;;;;;;;6.47;2.47;;;;;;;-2.61;49.14;98720.97;5044178;28;20068;-72
2022/01/02 11:17:06;;;;;;;8.02;2.22;;;;;;;-2.50;49.17;98733.63;5051033;28;20064;-71
2022/01/02 11:19:32;;;;;;;7.27;2.37;;;;;;;-2.52;49.05;98730.38;5050582;28;20303;-70
2022/01/02 11:22:02;;;;;;;4.47;1.80;;;;;;;-2.59;49.00;98697.47;5075258;28;20528;-71
2022/01/02 11:24:38;;;;;;;6.63;1.93;;;;;;;-2.57;49.42;98727.53;5039594;28;20049;-70
2022/01/02 11:27:13;;;;;;;7.33;1.87;;;;;;;-2.52;49.41;98706.28;5056839;28;20069;-70
2022/01/02 11:29:39;;;;;;;6.93;2.13;;;;;;;-2.48;49.52;98709.34;5037290;28;20057;-72
2022/01/02 11:32:20;;;;;;;5.00;1.73;;;;;;;-2.28;49.07;98715.38;5035042;28;20048;-68
2022/01/02 11:34:46;;;;;;;7.07;2.10;;;;;;;-2.39;48.86;98716.09;5039011;28;20040;-69
2022/01/02 11:37:20;;;;;;;6.27;2.10;;;;;;;-2.53;49.07;98709.97;5036580;28;20069;-70
2022/01/02 11:39:56;;;;;;;7.27;2.60;;;;;;;-2.55;49.06;98713.94;5035954;28;20095;-69
2022/01/02 11:42:42;;;;;;;9.50;2.57;;;;;;;-2.47;48.61;98710.97;5044843;28;20042;-70
2022/01/02 11:45:10;;;;;;;6.07;2.20;;;;;;;-2.59;49.06;98705.50;5028576;28;20555;-71
2022/01/02 11:47:41;;;;;;;6.07;1.88;;;;;;;-2.61;49.20;98699.56;5045048;28;20185;-71
2022/01/02 11:50:43;;;;;;;5.60;1.93;;;;;;;-2.60;49.02;98701.19;5050713;28;20041;-69
2022/01/02 11:53:23;;;;;;;7.47;2.50;;;;;;;-2.62;49.01;98704.06;5050465;28;20224;-69
2022/01/02 11:55:53;;;;;;;7.80;2.60;;;;;;;-2.55;48.94;98700.56;5050499;28;20042;-69
2022/01/02 11:58:50;;;;;;;6.47;2.30;;;;;;;-2.54;49.22;98699.50;5049377;28;20053;-70
2022/01/02 12:01:47;;;;;;;7.15;2.20;;;;;;;-2.59;49.19;98716.22;5028677;28;20048;-68
2022/01/02 12:04:13;;;;;;;;;;;;;;;-2.62;49.04;98706.75;5034337;28;20108;-67
2022/01/02 12:06:42;;;;;;;5.47;1.73;;;;;;;-2.77;48.72;98725.78;5037183;28;20031;-69
2022/01/02 12:09:34;;;;;;;5.73;2.03;;;;;;;-2.75;48.98;98741.59;5046761;28;21919;-66
2022/01/02 12:12:04;;;;;;;7.63;1.93;;;;;;;-2.67;48.74;98732.50;5045535;28;20084;-66
2022/01/02 12:14:30;;;;;;;7.07;2.27;;;;;;;-2.71;48.60;98742.84;5029906;28;20095;-66
2022/01/02 12:17:08;;;;;;;5.87;2.10;;;;;;;-2.87;48.89;98730.75;5032906;28;20052;-69
2022/01/02 12:19:57;;;;;;;8.77;2.60;;;;;;;-2.65;49.65;98735.81;5046627;28;20414;-72
2022/01/02 12:22:40;;;;;;;8.87;2.50;;;;;;;-2.62;49.22;98762.97;5040312;28;20486;-73
2022/01/02 12:25:11;;;;;;;7.13;2.33;;;;;;;-2.75;49.20;98760.34;5057433;28;20051;-73
2022/01/02 12:27:45;;;;;;;11.97;2.63;;;;;;;-2.94;49.48;98738.81;5042040;28;20037;-73
2022/01/02 12:30:12;;;;;;;7.37;1.90;;;;;;;-3.03;49.37;98750.81;5052866;28;20440;-72
2022/01/02 12:32:40;;;;;;;7.27;2.20;;;;;;;-2.94;49.84;98759.41;5032727;28;20124;-71
2022/01/02 12:35:08;;;;;;;4.67;1.83;;;;;;;-2.82;50.02;98748.88;5040026;28;20041;-71
2022/01/02 12:37:34;;;;;;;5.00;1.67;;;;;;;-2.80;49.47;98760.16;5042636;28;20068;-70
2022/01/02 12:40:00;;;;;;;8.80;2.40;;;;;;;-2.82;49.81;98748.88;5042576;28;20049;-70
2022/01/02 12:42:27;;;;;;;5.43;1.80;;;;;;;-2.80;49.50;98752.97;5041309;28;20073;-71
2022/01/02 12:44:54;;;;;;;5.00;2.00;;;;;;;-2.81;49.61;98767.41;5033998;28;20075;-71
2022/01/02 12:47:24;;;;;;;5.90;2.10;;;;;;;-2.80;49.44;98765.53;5039939;28;20049;-72
2022/01/02 12:49:56;;;;;;;5.37;2.00;;;;;;;-2.71;49.44;98769.63;5044298;28;20052;-72
2022/01/02 12:52:23;;;;;;;6.77;2.10;;;;;;;-2.77;49.46;98770.44;5048057;28;20049;-72